createdAt,value
2023-03-13T00:01:24.427Z,6.27
2023-03-13T00:03:52.291Z,6.30
2023-03-13T00:06:19.600Z,6.43
2023-03-13T00:08:47.104Z,6.49
2023-03-13T00:11:15.761Z,6.47
2023-03-13T00:13:44.162Z,6.51
2023-03-13T00:16:19.284Z,6.39
2023-03-13T00:18:49.055Z,6.37
2023-03-13T00:21:18.135Z,6.44
2023-03-13T00:23:46.505Z,6.55
2023-03-13T00:26:17.264Z,6.51
2023-03-13T00:28:46.017Z,6.53
2023-03-13T00:31:18.324Z,6.56
2023-03-13T00:33:47.912Z,6.58
2023-03-13T00:36:18.126Z,6.54
2023-03-13T00:38:46.335Z,6.61
2023-03-13T00:41:19.373Z,6.66
2023-03-13T00:43:48.117Z,6.69
2023-03-13T00:46:17.610Z,6.63
2023-03-13T00:48:45.083Z,6.62
2023-03-13T00:51:13.710Z,6.66
2023-03-13T00:53:42.637Z,6.66
2023-03-13T00:56:12.728Z,6.67
2023-03-13T00:58:42.581Z,6.62
2023-03-13T01:01:14.694Z,6.64
2023-03-13T01:03:44.708Z,6.66
2023-03-13T01:06:15.713Z,6.62
2023-03-13T01:08:43.591Z,6.68
2023-03-13T01:11:15.383Z,6.71
2023-03-13T01:13:43.099Z,6.76
2023-03-13T01:16:14.422Z,6.72
2023-03-13T01:18:44.672Z,6.69
2023-03-13T01:21:13.056Z,6.66
2023-03-13T01:23:41.335Z,6.67
2023-03-13T01:26:10.474Z,6.69
2023-03-13T01:28:39.323Z,6.81
2023-03-13T01:31:23.948Z,6.74
2023-03-13T01:33:55.117Z,6.82
2023-03-13T01:36:23.148Z,6.77
2023-03-13T01:38:52.645Z,6.71
2023-03-13T01:41:21.225Z,6.70
2023-03-13T01:43:48.975Z,6.76
2023-03-13T01:46:22.560Z,6.76
2023-03-13T01:49:09.582Z,6.74
2023-03-13T01:51:49.661Z,6.74
2023-03-13T01:54:23.203Z,6.65
2023-03-13T01:57:02.424Z,6.69
2023-03-13T01:59:44.405Z,6.71
2023-03-13T02:02:13.414Z,6.63
2023-03-13T02:04:47.817Z,6.69
2023-03-13T02:07:19.872Z,6.72
2023-03-13T02:09:52.248Z,6.66
2023-03-13T02:12:27.910Z,6.60
2023-03-13T02:14:57.536Z,6.49
2023-03-13T02:17:26.895Z,6.52
2023-03-13T02:19:54.427Z,6.51
2023-03-13T02:22:43.823Z,6.45
2023-03-13T02:25:23.812Z,6.55
2023-03-13T02:28:07.492Z,6.41
2023-03-13T02:30:38.709Z,6.38
2023-03-13T02:36:54.662Z,6.46
2023-03-13T02:39:25.078Z,6.44
2023-03-13T02:41:53.818Z,6.43
2023-03-13T02:44:21.226Z,6.56
2023-03-13T02:46:52.617Z,6.54
2023-03-13T02:49:30.269Z,6.68
2023-03-13T02:52:14.156Z,6.77
2023-03-13T02:54:47.200Z,6.69
2023-03-13T02:57:14.881Z,6.76
2023-03-13T02:59:42.307Z,6.72
2023-03-13T03:02:09.800Z,6.77
2023-03-13T03:04:38.657Z,6.77
2023-03-13T03:07:06.227Z,6.81
2023-03-13T03:09:33.836Z,6.97
2023-03-13T03:12:06.017Z,6.94
2023-03-13T03:14:33.823Z,6.93
2023-03-13T03:17:02.219Z,7.02
2023-03-13T03:19:29.713Z,7.02
2023-03-13T03:21:57.369Z,7.03
2023-03-13T03:24:24.804Z,6.91
2023-03-13T03:26:52.228Z,6.91
2023-03-13T03:29:28.099Z,6.81
2023-03-13T03:31:56.702Z,6.82
2023-03-13T03:34:24.545Z,6.81
2023-03-13T03:36:52.659Z,6.76
2023-03-13T03:39:20.178Z,6.77
2023-03-13T03:41:48.277Z,6.82
2023-03-13T03:44:16.000Z,6.83
2023-03-13T03:47:03.607Z,6.73
2023-03-13T03:49:35.645Z,6.78
2023-03-13T03:52:03.106Z,6.79
2023-03-13T03:54:35.840Z,6.89
2023-03-13T03:57:03.610Z,6.91
2023-03-13T03:59:31.108Z,6.79
2023-03-13T04:02:03.429Z,6.82
2023-03-13T04:04:32.346Z,6.77
2023-03-13T04:07:04.856Z,6.73
2023-03-13T04:09:34.188Z,6.83
2023-03-13T04:12:03.907Z,6.92
2023-03-13T04:14:35.562Z,6.80
2023-03-13T04:17:06.254Z,6.81
2023-03-13T04:19:34.170Z,6.74
2023-03-13T04:22:01.482Z,6.71
2023-03-13T04:24:30.069Z,6.67
2023-03-13T04:26:58.868Z,6.65
2023-03-13T04:29:27.552Z,6.69
2023-03-13T04:32:02.294Z,6.69
2023-03-13T04:35:05.423Z,6.59
2023-03-13T04:38:03.817Z,6.58
2023-03-13T04:40:52.043Z,6.74
2023-03-13T04:43:30.882Z,6.64
2023-03-13T04:46:11.943Z,6.70
2023-03-13T04:49:08.729Z,6.77
2023-03-13T04:51:51.649Z,6.79
2023-03-13T04:54:36.754Z,6.85
2023-03-13T04:57:24.473Z,6.75
2023-03-13T05:00:01.580Z,6.87
2023-03-13T05:02:44.575Z,6.94
2023-03-13T05:05:26.709Z,6.90
2023-03-13T05:08:01.585Z,6.87
2023-03-13T05:10:42.740Z,6.83
2023-03-13T05:13:33.584Z,6.92
2023-03-13T05:16:19.495Z,6.86
2023-03-13T05:19:05.680Z,6.84
2023-03-13T05:22:05.421Z,6.83
2023-03-13T05:24:53.130Z,6.91
2023-03-13T05:27:50.011Z,6.89
2023-03-13T05:30:32.479Z,7.05
2023-03-13T05:33:29.140Z,6.99
2023-03-13T05:36:05.532Z,7.10
2023-03-13T05:38:58.858Z,7.10
2023-03-13T05:42:04.762Z,7.07
2023-03-13T05:44:40.161Z,7.18
2023-03-13T05:47:30.458Z,7.18
2023-03-13T05:50:17.684Z,7.24
2023-03-13T05:53:19.343Z,7.32
2023-03-13T05:56:07.938Z,7.37
2023-03-13T05:59:04.728Z,7.41
2023-03-13T06:01:55.024Z,7.50
2023-03-13T06:04:35.846Z,7.47
2023-03-13T06:07:03.352Z,7.52
2023-03-13T06:09:31.069Z,7.50
2023-03-13T06:11:59.898Z,7.58
2023-03-13T06:14:27.512Z,7.53
2023-03-13T06:17:17.955Z,7.43
2023-03-13T06:19:47.300Z,7.44
2023-03-13T06:22:17.245Z,7.47
2023-03-13T06:24:45.182Z,7.54
2023-03-13T06:27:12.344Z,7.65
2023-03-13T06:29:39.750Z,7.85
2023-03-13T06:32:07.455Z,7.90
2023-03-13T06:34:35.080Z,7.83
2023-03-13T06:37:04.098Z,7.96
2023-03-13T06:39:31.615Z,8.06
2023-03-13T06:41:58.924Z,7.92
2023-03-13T06:44:26.945Z,8.06
2023-03-13T06:46:54.378Z,8.00
2023-03-13T06:49:21.769Z,8.07
2023-03-13T06:51:49.171Z,8.12
2023-03-13T06:54:16.564Z,8.19
2023-03-13T06:56:44.411Z,8.30
2023-03-13T06:59:11.792Z,8.45
2023-03-13T07:01:39.351Z,8.54
2023-03-13T07:04:06.909Z,8.54
2023-03-13T07:06:34.782Z,8.73
2023-03-13T07:09:02.185Z,8.75
2023-03-13T07:11:29.573Z,8.80
2023-03-13T07:14:10.041Z,8.81
2023-03-13T07:16:41.030Z,8.88
2023-03-13T07:19:08.558Z,8.86
2023-03-13T07:21:36.086Z,8.83
2023-03-13T07:24:04.251Z,8.80
2023-03-13T07:26:31.776Z,8.74
2023-03-13T07:28:59.578Z,8.70
2023-03-13T07:31:27.154Z,8.56
2023-03-13T07:33:56.799Z,8.43
2023-03-13T07:36:24.358Z,8.38
2023-03-13T07:38:52.663Z,8.23
2023-03-13T07:41:20.970Z,8.12
2023-03-13T07:43:48.866Z,8.04
2023-03-13T07:46:18.822Z,7.95
2023-03-13T07:48:46.676Z,8.01
2023-03-13T07:51:15.638Z,8.00
2023-03-13T07:53:44.907Z,7.86
2023-03-13T07:56:14.945Z,7.83
2023-03-13T07:58:43.506Z,7.83
2023-03-13T08:01:24.148Z,7.88
2023-03-13T08:03:54.670Z,7.84
2023-03-13T08:06:25.224Z,7.87
2023-03-13T08:08:53.947Z,7.84
2023-03-13T08:11:25.659Z,7.78
2023-03-13T08:13:54.414Z,7.83
2023-03-13T08:16:30.353Z,7.82
2023-03-13T08:18:59.338Z,7.85
2023-03-13T08:21:29.206Z,7.83
2023-03-13T08:23:59.311Z,7.89
2023-03-13T08:26:29.394Z,7.81
2023-03-13T08:28:59.709Z,7.78
2023-03-13T08:31:30.955Z,7.83
2023-03-13T08:33:58.658Z,7.93
2023-03-13T08:36:37.167Z,7.97
2023-03-13T08:39:07.289Z,8.03
2023-03-13T08:41:36.727Z,7.80
2023-03-13T08:44:05.439Z,8.03
2023-03-13T08:46:35.659Z,8.16
2023-03-13T08:49:05.091Z,8.25
2023-03-13T08:51:34.050Z,8.33
2023-03-13T08:54:03.675Z,8.38
2023-03-13T08:56:32.105Z,8.50
2023-03-13T08:59:02.414Z,8.58
2023-03-13T09:01:32.816Z,8.53
2023-03-13T09:04:03.963Z,8.45
2023-03-13T09:06:33.938Z,8.54
2023-03-13T09:09:01.998Z,8.65
2023-03-13T09:11:29.556Z,8.57
2023-03-13T09:13:59.457Z,8.66
2023-03-13T09:16:29.331Z,8.60
2023-03-13T09:18:57.767Z,8.60
2023-03-13T09:21:28.038Z,8.65
2023-03-13T09:23:55.434Z,8.74
2023-03-13T09:26:23.723Z,8.75
2023-03-13T09:28:52.794Z,8.71
2023-03-13T09:31:31.961Z,8.77
2023-03-13T09:34:00.641Z,8.69
2023-03-13T09:36:28.076Z,8.69
2023-03-13T09:38:58.173Z,8.71
2023-03-13T09:41:47.838Z,8.81
2023-03-13T09:44:30.077Z,8.86
2023-03-13T09:47:15.184Z,9.00
2023-03-13T09:49:51.563Z,8.98
2023-03-13T09:52:41.565Z,9.09
2023-03-13T09:55:23.280Z,9.30
2023-03-13T09:57:57.865Z,9.33
2023-03-13T10:00:36.695Z,9.27
2023-03-13T10:03:42.949Z,9.44
2023-03-13T10:06:20.174Z,9.52
2023-03-13T10:08:47.661Z,9.71
2023-03-13T10:11:18.131Z,9.80
2023-03-13T10:13:48.714Z,9.77
2023-03-13T10:16:23.948Z,9.71
2023-03-13T10:18:58.255Z,9.69
2023-03-13T10:21:33.950Z,9.64
2023-03-13T10:24:06.219Z,9.77
2023-03-13T10:26:37.156Z,9.93
2023-03-13T10:29:21.236Z,10.07
2023-03-13T10:32:12.287Z,9.94
2023-03-13T10:35:00.730Z,10.32
2023-03-13T10:37:31.080Z,10.34
2023-03-13T10:40:25.212Z,10.37
2023-03-13T10:43:02.007Z,10.55
2023-03-13T10:45:34.694Z,10.57
2023-03-13T10:48:11.812Z,10.66
2023-03-13T10:50:46.032Z,10.54
2023-03-13T10:53:32.366Z,10.64
2023-03-13T10:56:10.733Z,10.73
2023-03-13T10:58:53.422Z,10.81
2023-03-13T11:01:27.090Z,10.87
2023-03-13T11:03:57.050Z,10.97
2023-03-13T11:06:33.171Z,11.02
2023-03-13T11:09:05.660Z,11.03
2023-03-13T11:11:49.026Z,11.04
2023-03-13T11:14:21.270Z,11.04
2023-03-13T11:17:03.197Z,11.15
2023-03-13T11:19:55.286Z,11.18
2023-03-13T11:22:38.886Z,11.14
2023-03-13T11:25:15.732Z,11.15
2023-03-13T11:28:02.532Z,11.14
2023-03-13T11:30:36.090Z,11.13
2023-03-13T11:33:10.399Z,11.14
2023-03-13T11:35:50.627Z,11.10
2023-03-13T11:38:27.440Z,11.15
2023-03-13T11:41:04.221Z,11.11
2023-03-13T11:43:58.033Z,11.09
2023-03-13T11:46:36.174Z,11.07
2023-03-13T11:49:18.725Z,11.19
2023-03-13T11:52:01.021Z,11.29
2023-03-13T11:54:53.419Z,11.26
2023-03-13T11:57:38.591Z,11.22
2023-03-13T12:00:24.937Z,11.23
2023-03-13T12:03:16.728Z,11.23
2023-03-13T12:06:15.865Z,11.16
2023-03-13T12:08:56.091Z,11.23
2023-03-13T12:11:29.929Z,11.25
2023-03-13T12:14:13.840Z,11.36
2023-03-13T12:16:41.733Z,11.48
2023-03-13T12:19:15.492Z,11.52
2023-03-13T12:21:50.860Z,11.66
2023-03-13T12:24:36.457Z,11.75
2023-03-13T12:27:23.007Z,12.08
2023-03-13T12:30:06.357Z,12.28
2023-03-13T12:32:54.229Z,12.57
2023-03-13T12:35:30.145Z,12.80
2023-03-13T12:38:14.914Z,12.97
2023-03-13T12:41:16.230Z,13.17
2023-03-13T12:43:51.748Z,13.03
2023-03-13T12:46:39.271Z,13.13
2023-03-13T12:49:21.934Z,13.13
2023-03-13T12:52:02.579Z,13.10
2023-03-13T12:55:07.665Z,13.24
2023-03-13T12:57:50.313Z,13.29
2023-03-13T13:00:23.159Z,13.32
2023-03-13T13:03:10.774Z,13.15
2023-03-13T13:05:38.276Z,13.34
2023-03-13T13:08:05.841Z,13.44
2023-03-13T13:10:33.405Z,13.49
2023-03-13T13:13:16.009Z,13.61
2023-03-13T13:15:49.672Z,13.67
2023-03-13T13:18:31.458Z,13.83
2023-03-13T13:21:09.846Z,13.85
2023-03-13T13:23:39.329Z,13.87
2023-03-13T13:26:47.970Z,13.93
2023-03-13T13:29:15.321Z,14.04
2023-03-13T13:31:49.680Z,14.21
2023-03-13T13:34:32.338Z,14.13
2023-03-13T13:37:01.952Z,14.05
2023-03-13T13:39:50.817Z,14.14
2023-03-13T13:42:33.269Z,13.98
2023-03-13T13:45:03.927Z,13.87
2023-03-13T13:47:33.783Z,13.88
2023-03-13T13:50:16.811Z,13.69
2023-03-13T13:52:44.640Z,13.49
2023-03-13T13:55:38.127Z,13.43
2023-03-13T13:58:22.331Z,13.33
2023-03-13T14:01:11.334Z,13.35
2023-03-13T14:03:42.432Z,13.38
2023-03-13T14:06:23.607Z,13.26
2023-03-13T14:08:56.539Z,13.31
2023-03-13T14:11:37.170Z,13.32
2023-03-13T14:14:22.017Z,13.47
2023-03-13T14:16:52.390Z,13.51
2023-03-13T14:19:34.700Z,13.72
2023-03-13T14:22:10.543Z,13.77
2023-03-13T14:24:38.280Z,13.81
2023-03-13T14:27:17.332Z,13.80
2023-03-13T14:30:21.288Z,13.71
2023-03-13T14:32:50.625Z,13.57
2023-03-13T14:35:22.505Z,13.52
2023-03-13T14:37:52.722Z,13.64
2023-03-13T14:40:28.148Z,13.64
2023-03-13T14:42:58.449Z,13.64
2023-03-13T14:45:28.310Z,13.80
2023-03-13T14:48:01.221Z,13.78
2023-03-13T14:50:28.767Z,13.81
2023-03-13T14:53:05.411Z,13.86
2023-03-13T14:55:35.959Z,13.83
2023-03-13T14:58:30.483Z,13.91
2023-03-13T15:01:00.764Z,13.97
2023-03-13T15:03:31.598Z,13.94
2023-03-13T15:06:09.671Z,13.76
2023-03-13T15:08:42.784Z,13.72
2023-03-13T15:11:29.474Z,13.61
2023-03-13T15:13:57.367Z,13.59
2023-03-13T15:16:25.793Z,13.63
2023-03-13T15:18:54.105Z,13.68
2023-03-13T15:21:27.251Z,13.62
2023-03-13T15:24:02.766Z,13.57
2023-03-13T15:26:30.501Z,13.52
2023-03-13T15:28:58.102Z,13.44
2023-03-13T15:31:28.904Z,13.37
2023-03-13T15:33:59.843Z,13.55
2023-03-13T15:36:28.763Z,13.69
2023-03-13T15:38:56.519Z,13.74
2023-03-13T15:41:24.302Z,13.84
2023-03-13T15:43:56.986Z,13.77
2023-03-13T15:46:26.445Z,13.87
2023-03-13T15:48:56.236Z,13.83
2023-03-13T15:51:23.708Z,13.76
2023-03-13T15:53:53.334Z,13.89
2023-03-13T15:56:25.561Z,13.91
2023-03-13T15:58:53.145Z,13.80
2023-03-13T16:01:23.183Z,13.84
2023-03-13T16:03:50.806Z,13.88
2023-03-13T16:06:21.663Z,13.72
2023-03-13T16:08:49.357Z,13.69
2023-03-13T16:11:17.354Z,13.67
2023-03-13T16:13:45.217Z,13.68
2023-03-13T16:16:25.509Z,13.70
2023-03-13T16:18:53.088Z,13.55
2023-03-13T16:21:23.866Z,13.52
2023-03-13T16:23:51.368Z,13.52
2023-03-13T16:26:24.071Z,13.54
2023-03-13T16:28:54.349Z,13.48
2023-03-13T16:31:25.150Z,13.48
2023-03-13T16:33:54.145Z,13.45
2023-03-13T16:36:28.688Z,13.44
2023-03-13T16:38:56.149Z,13.37
2023-03-13T16:41:26.781Z,13.41
2023-03-13T16:43:55.502Z,13.55
2023-03-13T16:46:55.678Z,13.50
2023-03-13T16:49:31.915Z,13.40
2023-03-13T16:51:59.322Z,13.26
2023-03-13T16:54:26.920Z,13.22
2023-03-13T16:56:54.373Z,13.11
2023-03-13T16:59:23.304Z,12.93
2023-03-13T17:01:51.040Z,12.87
2023-03-13T17:04:18.501Z,12.80
2023-03-13T17:06:46.959Z,12.80
2023-03-13T17:09:17.223Z,12.80
2023-03-13T17:11:45.223Z,12.73
2023-03-13T17:14:13.646Z,12.67
2023-03-13T17:16:52.810Z,12.68
2023-03-13T17:19:20.296Z,12.66
2023-03-13T17:21:47.779Z,12.61
2023-03-13T17:24:15.291Z,12.52
2023-03-13T17:26:42.741Z,12.60
2023-03-13T17:29:19.067Z,12.68
2023-03-13T17:31:46.526Z,12.76
2023-03-13T17:34:15.571Z,12.83
2023-03-13T17:36:44.611Z,12.96
2023-03-13T17:39:13.758Z,13.03
2023-03-13T17:41:41.121Z,12.92
2023-03-13T17:44:08.560Z,12.87
2023-03-13T17:46:49.297Z,12.79
2023-03-13T17:49:20.582Z,12.82
2023-03-13T17:51:50.003Z,12.76
2023-03-13T17:54:19.162Z,12.73
2023-03-13T17:56:47.152Z,12.73
2023-03-13T17:59:17.282Z,12.83
2023-03-13T18:01:45.205Z,12.84
2023-03-13T18:04:13.425Z,12.81
2023-03-13T18:06:45.278Z,12.80
2023-03-13T18:09:21.293Z,12.79
2023-03-13T18:11:49.621Z,12.78
2023-03-13T18:14:17.266Z,12.77
2023-03-13T18:16:50.595Z,12.74
2023-03-13T18:19:24.017Z,12.71
2023-03-13T18:21:53.752Z,12.71
2023-03-13T18:24:21.694Z,12.74
2023-03-13T18:26:49.464Z,12.62
2023-03-13T18:29:26.608Z,12.31
2023-03-13T18:31:56.314Z,12.08
2023-03-13T18:34:24.943Z,11.89
2023-03-13T18:36:53.221Z,11.80
2023-03-13T18:39:21.050Z,11.71
2023-03-13T18:41:49.061Z,11.72
2023-03-13T18:44:19.124Z,11.78
2023-03-13T18:46:47.253Z,11.88
2023-03-13T18:49:22.179Z,11.91
2023-03-13T18:51:51.650Z,11.98
2023-03-13T18:54:19.652Z,12.05
2023-03-13T18:56:47.829Z,12.06
2023-03-13T18:59:21.247Z,12.14
2023-03-13T19:01:50.100Z,12.17
2023-03-13T19:04:19.429Z,12.17
2023-03-13T19:06:48.482Z,12.16
2023-03-13T19:09:41.092Z,12.17
2023-03-13T19:12:06.575Z,12.14
2023-03-13T19:14:35.835Z,12.13
2023-03-13T19:17:07.289Z,11.99
2023-03-13T19:19:38.376Z,11.82
2023-03-13T19:22:06.228Z,11.72
2023-03-13T19:24:33.770Z,11.72
2023-03-13T19:27:01.551Z,11.44
2023-03-13T19:29:29.392Z,10.89
2023-03-13T19:31:56.915Z,10.65
2023-03-13T19:34:24.316Z,10.44
2023-03-13T19:36:53.486Z,10.27
2023-03-13T19:39:26.314Z,10.25
2023-03-13T19:41:54.129Z,10.09
2023-03-13T19:44:21.787Z,10.06
2023-03-13T19:46:49.501Z,10.10
2023-03-13T19:49:19.576Z,10.04
2023-03-13T19:51:47.609Z,9.96
2023-03-13T19:54:15.618Z,9.93
2023-03-13T19:56:45.210Z,9.85
2023-03-13T19:59:17.201Z,9.87
2023-03-13T20:01:45.088Z,9.80
2023-03-13T20:04:13.024Z,9.81
2023-03-13T20:06:42.636Z,9.75
2023-03-13T20:09:13.167Z,9.79
2023-03-13T20:11:41.387Z,9.77
2023-03-13T20:14:09.302Z,9.81
2023-03-13T20:16:37.438Z,9.75
2023-03-13T20:19:06.587Z,9.78
2023-03-13T20:21:37.539Z,9.75
2023-03-13T20:24:05.612Z,9.70
2023-03-13T20:26:33.327Z,9.64
2023-03-13T20:29:00.854Z,9.64
2023-03-13T20:31:31.610Z,9.61
2023-03-13T20:33:59.899Z,9.62
2023-03-13T20:36:28.139Z,9.52
2023-03-13T20:38:55.852Z,9.47
2023-03-13T20:41:25.947Z,9.45
2023-03-13T20:43:53.688Z,9.55
2023-03-13T20:46:21.438Z,9.48
2023-03-13T20:48:49.793Z,9.47
2023-03-13T20:51:17.539Z,9.40
2023-03-13T20:53:45.150Z,9.47
2023-03-13T20:56:13.051Z,9.39
2023-03-13T20:58:40.572Z,9.39
2023-03-13T21:01:08.659Z,9.36
2023-03-13T21:03:36.971Z,9.41
2023-03-13T21:06:13.400Z,9.34
2023-03-13T21:08:41.610Z,9.35
2023-03-13T21:11:17.855Z,9.23
2023-03-13T21:13:49.726Z,9.18
2023-03-13T21:16:21.597Z,9.15
2023-03-13T21:18:56.008Z,9.10
2023-03-13T21:21:24.433Z,9.10
2023-03-13T21:23:53.293Z,9.08
2023-03-13T21:26:21.058Z,9.09
2023-03-13T21:28:48.937Z,9.00
2023-03-13T21:31:17.997Z,9.01
2023-03-13T21:33:46.806Z,8.99
2023-03-13T21:36:17.344Z,8.96
2023-03-13T21:38:45.656Z,8.95
2023-03-13T21:41:16.128Z,8.97
2023-03-13T21:43:44.242Z,9.00
2023-03-13T21:46:17.406Z,8.99
2023-03-13T21:51:13.827Z,9.05
2023-03-13T21:53:44.473Z,9.01
2023-03-13T21:56:16.744Z,9.06
2023-03-13T21:58:47.988Z,9.07
2023-03-13T22:01:16.066Z,9.13
2023-03-13T22:03:43.782Z,9.17
2023-03-13T22:06:12.508Z,9.19
2023-03-13T22:08:40.027Z,9.22
2023-03-13T22:11:07.718Z,9.25
2023-03-13T22:13:35.392Z,9.26
2023-03-13T22:16:03.208Z,9.34
2023-03-13T22:18:30.559Z,9.28
2023-03-13T22:20:59.775Z,9.25
2023-03-13T22:23:27.274Z,9.22
2023-03-13T22:25:56.685Z,9.25
2023-03-13T22:28:24.756Z,9.25
2023-03-13T22:30:52.702Z,9.39
2023-03-13T22:33:20.237Z,9.30
2023-03-13T22:35:52.744Z,9.39
2023-03-13T22:38:21.489Z,9.42
2023-03-13T22:40:56.773Z,9.44
2023-03-13T22:43:24.251Z,9.47
2023-03-13T22:45:51.753Z,9.57
2023-03-13T22:48:19.295Z,9.53
2023-03-13T22:50:46.766Z,9.50
2023-03-13T22:53:15.421Z,9.53
2023-03-13T22:55:42.868Z,9.54
2023-03-13T22:58:10.396Z,9.51
2023-03-13T23:00:38.095Z,9.48
2023-03-13T23:03:05.534Z,9.59
2023-03-13T23:05:43.603Z,9.55
2023-03-13T23:08:11.563Z,9.57
2023-03-13T23:10:38.964Z,9.54
2023-03-13T23:13:06.437Z,9.55
2023-03-13T23:15:54.656Z,9.54
2023-03-13T23:18:21.218Z,9.52
2023-03-13T23:20:48.634Z,9.54
2023-03-13T23:23:16.436Z,9.45
2023-03-13T23:25:43.948Z,9.49
2023-03-13T23:28:11.468Z,9.40
2023-03-13T23:30:38.899Z,9.33
2023-03-13T23:33:06.716Z,9.28
2023-03-13T23:35:37.282Z,9.15
2023-03-13T23:38:04.777Z,9.00
2023-03-13T23:40:32.886Z,8.88
2023-03-13T23:43:00.606Z,8.83
2023-03-13T23:45:28.025Z,8.83
2023-03-13T23:47:55.656Z,8.86
2023-03-13T23:50:24.006Z,8.91
2023-03-13T23:52:51.429Z,8.80
2023-03-13T23:55:19.276Z,8.78
2023-03-13T23:57:48.931Z,8.73
